createdAt,value
2022-09-12T00:01:54.202Z,15.08
2022-09-12T00:04:24.388Z,15.03
2022-09-12T00:06:54.563Z,14.97
2022-09-12T00:09:24.887Z,14.91
2022-09-12T00:11:55.132Z,14.87
2022-09-12T00:14:25.298Z,14.82
2022-09-12T00:17:00.725Z,14.74
2022-09-12T00:19:31.438Z,14.75
2022-09-12T00:22:01.696Z,14.76
2022-09-12T00:24:31.837Z,14.72
2022-09-12T00:27:01.971Z,14.70
2022-09-12T00:29:32.075Z,14.68
2022-09-12T00:32:05.360Z,14.67
2022-09-12T00:34:35.557Z,14.69
2022-09-12T00:37:06.222Z,14.66
2022-09-12T00:39:36.653Z,14.68
2022-09-12T00:42:07.038Z,14.67
2022-09-12T00:44:50.504Z,14.66
2022-09-12T00:47:26.929Z,14.53
2022-09-12T00:50:06.139Z,14.57
2022-09-12T00:52:40.357Z,14.54
2022-09-12T00:55:15.850Z,14.53
2022-09-12T00:57:52.072Z,14.50
2022-09-12T01:00:25.516Z,14.50
2022-09-12T01:03:01.452Z,14.48
2022-09-12T01:05:34.248Z,14.43
2022-09-12T01:08:06.617Z,14.36
2022-09-12T01:10:38.973Z,14.32
2022-09-12T01:13:11.965Z,14.38
2022-09-12T01:15:43.294Z,14.32
2022-09-12T01:18:22.342Z,14.30
2022-09-12T01:21:22.910Z,14.28
2022-09-12T01:24:25.708Z,14.26
2022-09-12T01:27:26.886Z,14.23
2022-09-12T01:30:08.795Z,14.22
2022-09-12T01:32:54.484Z,13.91
2022-09-12T01:35:31.381Z,13.78
2022-09-12T01:38:13.130Z,13.76
2022-09-12T01:40:49.941Z,13.93
2022-09-12T01:43:26.879Z,13.98
2022-09-12T01:46:04.287Z,13.98
2022-09-12T01:48:41.960Z,13.97
2022-09-12T01:51:18.203Z,13.95
2022-09-12T01:53:53.708Z,13.91
2022-09-12T01:56:29.870Z,13.87
2022-09-12T01:59:08.286Z,13.82
2022-09-12T02:01:43.259Z,13.82
2022-09-12T02:04:21.119Z,13.76
2022-09-12T02:06:56.465Z,13.73
2022-09-12T02:09:30.940Z,13.68
2022-09-12T02:12:03.739Z,13.63
2022-09-12T02:14:39.502Z,13.59
2022-09-12T02:17:14.246Z,13.58
2022-09-12T02:19:52.272Z,13.56
2022-09-12T02:22:25.678Z,13.57
2022-09-12T02:24:58.733Z,13.52
2022-09-12T02:27:33.731Z,13.50
2022-09-12T02:30:04.450Z,13.43
2022-09-12T02:32:39.848Z,13.43
2022-09-12T02:35:22.140Z,13.39
2022-09-12T02:38:00.447Z,13.34
2022-09-12T02:40:31.281Z,13.32
2022-09-12T02:43:01.596Z,13.31
2022-09-12T02:45:34.345Z,13.27
2022-09-12T02:48:07.598Z,13.24
2022-09-12T02:50:41.134Z,13.20
2022-09-12T02:53:12.229Z,13.17
2022-09-12T02:55:44.742Z,13.11
2022-09-12T02:58:18.527Z,13.13
2022-09-12T03:00:54.640Z,13.12
2022-09-12T03:03:43.458Z,13.14
2022-09-12T03:06:22.144Z,13.09
2022-09-12T03:09:05.897Z,13.13
2022-09-12T03:11:58.117Z,13.10
2022-09-12T03:14:52.161Z,13.08
2022-09-12T03:17:31.463Z,13.07
2022-09-12T03:20:10.159Z,13.05
2022-09-12T03:22:54.166Z,13.10
2022-09-12T03:25:30.884Z,12.99
2022-09-12T03:28:07.531Z,13.03
2022-09-12T03:30:41.231Z,12.98
2022-09-12T03:33:13.706Z,12.95
2022-09-12T03:35:44.230Z,12.82
2022-09-12T03:38:17.291Z,12.89
2022-09-12T03:40:50.361Z,12.87
2022-09-12T03:43:24.251Z,12.83
2022-09-12T03:45:55.044Z,12.84
2022-09-12T03:48:25.277Z,12.87
2022-09-12T03:50:55.425Z,12.85
2022-09-12T03:53:28.161Z,12.85
2022-09-12T03:55:58.279Z,12.82
2022-09-12T03:58:34.019Z,12.82
2022-09-12T04:01:04.135Z,12.82
2022-09-12T04:03:34.310Z,12.81
2022-09-12T04:06:04.471Z,12.80
2022-09-12T04:08:37.611Z,12.79
2022-09-12T04:11:08.734Z,12.78
2022-09-12T04:13:39.968Z,12.78
2022-09-12T04:16:10.715Z,12.79
2022-09-12T04:18:41.211Z,12.76
2022-09-12T04:21:13.589Z,12.79
2022-09-12T04:23:46.736Z,12.79
2022-09-12T04:26:18.435Z,12.79
2022-09-12T04:28:50.443Z,12.81
2022-09-12T04:31:22.897Z,12.88
2022-09-12T04:33:58.225Z,12.90
2022-09-12T04:36:29.370Z,12.91
2022-09-12T04:39:03.348Z,12.94
2022-09-12T04:41:34.761Z,12.98
2022-09-12T04:44:07.459Z,13.02
2022-09-12T04:46:39.676Z,13.04
2022-09-12T04:49:10.435Z,13.08
2022-09-12T04:51:42.753Z,13.12
2022-09-12T04:54:18.715Z,13.21
2022-09-12T04:56:50.786Z,13.23
2022-09-12T04:59:22.736Z,13.28
2022-09-12T05:01:53.106Z,13.36
2022-09-12T05:04:23.680Z,13.43
2022-09-12T05:06:53.796Z,13.48
2022-09-12T05:09:26.635Z,13.57
2022-09-12T05:12:05.348Z,13.59
2022-09-12T05:14:36.844Z,13.62
2022-09-12T05:17:08.108Z,13.68
2022-09-12T05:19:38.269Z,13.75
2022-09-12T05:22:08.549Z,13.85
2022-09-12T05:24:47.252Z,13.94
2022-09-12T05:27:20.266Z,14.03
2022-09-12T05:29:50.446Z,14.19
2022-09-12T05:32:20.890Z,14.40
2022-09-12T05:34:51.114Z,14.64
2022-09-12T05:37:21.263Z,14.83
2022-09-12T05:39:54.223Z,15.14
2022-09-12T05:42:24.875Z,15.18
2022-09-12T05:44:55.461Z,15.34
2022-09-12T05:47:25.597Z,15.60
2022-09-12T05:49:56.109Z,15.81
2022-09-12T05:52:26.642Z,15.76
2022-09-12T05:54:59.377Z,16.07
2022-09-12T05:57:29.488Z,16.31
2022-09-12T05:59:59.825Z,16.47
2022-09-12T06:02:30.699Z,16.64
2022-09-12T06:05:01.090Z,16.80
2022-09-12T06:07:32.167Z,16.92
2022-09-12T06:10:05.547Z,17.18
2022-09-12T06:12:35.683Z,17.44
2022-09-12T06:15:05.883Z,18.08
2022-09-12T06:17:36.027Z,18.58
2022-09-12T06:20:06.986Z,18.78
2022-09-12T06:22:37.121Z,19.11
2022-09-12T06:25:10.985Z,19.09
2022-09-12T06:27:40.827Z,19.39
2022-09-12T06:30:12.258Z,19.81
2022-09-12T06:32:42.497Z,19.90
2022-09-12T06:35:13.901Z,20.29
2022-09-12T06:37:46.818Z,20.71
2022-09-12T06:40:19.886Z,20.66
2022-09-12T06:42:50.032Z,20.93
2022-09-12T06:45:21.009Z,20.79
2022-09-12T06:47:51.516Z,21.04
2022-09-12T06:50:22.133Z,20.96
2022-09-12T06:52:52.679Z,21.37
2022-09-12T06:55:27.738Z,21.68
2022-09-12T06:57:58.512Z,21.50
2022-09-12T07:00:28.747Z,21.36
2022-09-12T07:02:59.330Z,21.53
2022-09-12T07:05:29.565Z,21.81
2022-09-12T07:07:59.760Z,22.10
2022-09-12T07:10:33.872Z,22.52
2022-09-12T07:13:03.727Z,22.59
2022-09-12T07:15:33.817Z,22.86
2022-09-12T07:18:04.158Z,22.46
2022-09-12T07:20:37.306Z,22.20
2022-09-12T07:23:07.498Z,22.11
2022-09-12T07:25:40.222Z,22.55
2022-09-12T07:28:10.498Z,22.24
2022-09-12T07:30:41.376Z,22.97
2022-09-12T07:33:11.942Z,22.97
2022-09-12T07:35:42.140Z,23.21
2022-09-12T07:38:12.306Z,23.23
2022-09-12T07:40:45.120Z,23.25
2022-09-12T07:43:15.353Z,23.62
2022-09-12T07:45:45.484Z,23.77
2022-09-12T07:48:16.512Z,23.77
2022-09-12T07:50:47.001Z,23.91
2022-09-12T07:53:17.200Z,23.51
2022-09-12T07:56:05.623Z,23.75
2022-09-12T07:58:38.205Z,23.65
2022-09-12T08:01:10.265Z,23.34
2022-09-12T08:03:41.104Z,23.85
2022-09-12T08:06:14.075Z,24.32
2022-09-12T08:08:45.322Z,24.52
2022-09-12T08:11:21.213Z,24.25
2022-09-12T08:13:55.215Z,24.23
2022-09-12T08:16:27.832Z,23.40
2022-09-12T08:18:58.702Z,23.74
2022-09-12T08:21:30.577Z,24.12
2022-09-12T08:24:02.243Z,24.35
2022-09-12T08:26:37.102Z,23.78
2022-09-12T08:29:07.768Z,24.10
2022-09-12T08:31:39.198Z,24.07
2022-09-12T08:34:09.914Z,23.83
2022-09-12T08:36:41.064Z,23.92
2022-09-12T08:39:11.301Z,24.00
2022-09-12T08:41:46.318Z,24.53
2022-09-12T08:44:37.518Z,24.34
2022-09-12T08:47:22.779Z,24.85
2022-09-12T08:50:00.578Z,24.82
2022-09-12T08:52:37.407Z,24.70
2022-09-12T08:55:14.843Z,24.68
2022-09-12T08:57:47.683Z,24.48
2022-09-12T09:00:21.647Z,23.65
2022-09-12T09:03:17.629Z,23.93
2022-09-12T09:05:53.288Z,24.24
2022-09-12T09:08:41.269Z,23.32
2022-09-12T09:11:24.218Z,22.96
2022-09-12T09:14:23.004Z,23.05
2022-09-12T09:16:55.648Z,24.24
2022-09-12T09:19:28.993Z,23.87
2022-09-12T09:22:04.295Z,24.02
2022-09-12T09:24:46.852Z,23.41
2022-09-12T09:27:39.865Z,23.10
2022-09-12T09:30:17.745Z,23.84
2022-09-12T09:32:53.004Z,24.13
2022-09-12T09:35:36.321Z,24.18
2022-09-12T09:38:21.750Z,24.36
2022-09-12T09:41:00.587Z,24.36
2022-09-12T09:43:31.377Z,23.63
2022-09-12T09:46:04.317Z,23.97
2022-09-12T09:48:37.863Z,23.81
2022-09-12T09:51:09.875Z,23.50
2022-09-12T09:53:47.905Z,23.22
2022-09-12T09:56:29.429Z,23.16
2022-09-12T09:58:59.821Z,22.99
2022-09-12T10:01:32.872Z,23.37
2022-09-12T10:04:03.293Z,22.89
2022-09-12T10:06:35.193Z,22.73
2022-09-12T10:09:20.778Z,22.81
2022-09-12T10:11:52.493Z,22.84
2022-09-12T10:14:36.901Z,22.78
2022-09-12T10:17:46.212Z,22.58
2022-09-12T10:20:34.925Z,22.64
2022-09-12T10:23:18.513Z,22.81
2022-09-12T10:25:50.098Z,23.10
2022-09-12T10:28:28.307Z,23.61
2022-09-12T10:31:02.951Z,23.78
2022-09-12T10:33:45.185Z,24.31
2022-09-12T10:36:16.129Z,24.17
2022-09-12T10:38:54.030Z,24.10
2022-09-12T10:41:24.765Z,23.76
2022-09-12T10:43:54.999Z,23.68
2022-09-12T10:46:33.158Z,23.45
2022-09-12T10:49:40.485Z,23.69
2022-09-12T10:52:29.547Z,23.29
2022-09-12T10:55:02.639Z,22.95
2022-09-12T10:57:51.975Z,23.17
2022-09-12T11:00:28.047Z,23.36
2022-09-12T11:03:08.522Z,23.07
2022-09-12T11:05:56.098Z,23.23
2022-09-12T11:09:00.304Z,23.47
2022-09-12T11:11:48.810Z,23.45
2022-09-12T11:14:44.369Z,23.44
2022-09-12T11:17:27.731Z,23.61
2022-09-12T11:20:21.062Z,23.08
2022-09-12T11:23:15.637Z,23.38
2022-09-12T11:25:57.470Z,23.61
2022-09-12T11:28:44.108Z,23.71
2022-09-12T11:31:49.290Z,23.74
2022-09-12T11:34:24.784Z,24.13
2022-09-12T11:37:18.298Z,23.95
2022-09-12T11:39:55.422Z,24.31
2022-09-12T11:42:35.005Z,24.97
2022-09-12T11:45:11.131Z,24.32
2022-09-12T11:47:43.174Z,24.65
2022-09-12T11:50:23.591Z,24.40
2022-09-12T11:52:55.931Z,24.07
2022-09-12T11:55:31.031Z,24.06
2022-09-12T11:58:05.259Z,24.08
2022-09-12T12:00:40.377Z,23.89
2022-09-12T12:03:17.589Z,24.18
2022-09-12T12:05:53.633Z,24.26
2022-09-12T12:08:25.119Z,24.37
2022-09-12T12:10:59.932Z,24.42
2022-09-12T12:13:36.921Z,24.37
2022-09-12T12:16:10.163Z,24.50
2022-09-12T12:18:42.215Z,24.59
2022-09-12T12:21:42.502Z,24.44
2022-09-12T12:24:22.307Z,24.46
2022-09-12T12:27:01.408Z,24.34
2022-09-12T12:29:47.965Z,24.28
2022-09-12T12:32:29.979Z,24.18
2022-09-12T12:35:31.117Z,24.28
2022-09-12T12:38:01.431Z,24.46
2022-09-12T12:40:33.950Z,24.48
2022-09-12T12:43:09.027Z,24.51
2022-09-12T12:46:03.287Z,24.26
2022-09-12T12:48:46.944Z,24.07
2022-09-12T12:51:31.110Z,24.10
2022-09-12T12:54:03.308Z,24.13
2022-09-12T12:56:41.724Z,24.06
2022-09-12T12:59:29.849Z,24.11
2022-09-12T13:02:07.506Z,24.03
2022-09-12T13:04:38.144Z,24.07
2022-09-12T13:07:12.170Z,23.60
2022-09-12T13:09:48.816Z,23.19
2022-09-12T13:12:25.132Z,23.45
2022-09-12T13:14:59.487Z,23.27
2022-09-12T13:17:37.177Z,23.51
2022-09-12T13:20:29.923Z,23.68
2022-09-12T13:23:01.240Z,23.80
2022-09-12T13:25:34.504Z,24.01
2022-09-12T13:28:08.026Z,24.08
2022-09-12T13:30:40.210Z,23.98
2022-09-12T13:33:23.848Z,23.80
2022-09-12T13:36:18.402Z,23.58
2022-09-12T13:39:00.021Z,23.37
2022-09-12T13:41:49.501Z,23.51
2022-09-12T13:44:23.245Z,23.60
2022-09-12T13:46:54.517Z,23.48
2022-09-12T13:49:35.334Z,23.41
2022-09-12T13:52:08.858Z,23.50
2022-09-12T13:54:41.733Z,23.29
2022-09-12T13:57:31.514Z,23.50
2022-09-12T14:00:03.349Z,23.16
2022-09-12T14:02:38.797Z,23.21
2022-09-12T14:05:21.453Z,23.40
2022-09-12T14:07:59.021Z,23.39
2022-09-12T14:10:33.239Z,23.46
2022-09-12T14:13:06.179Z,23.31
2022-09-12T14:15:40.048Z,23.53
2022-09-12T14:18:11.869Z,23.55
2022-09-12T14:20:45.098Z,23.57
2022-09-12T14:23:24.349Z,23.37
2022-09-12T14:25:56.464Z,23.23
2022-09-12T14:28:29.212Z,23.15
2022-09-12T14:31:05.138Z,23.19
2022-09-12T14:33:49.957Z,23.10
2022-09-12T14:36:26.843Z,23.22
2022-09-12T14:39:01.161Z,23.22
2022-09-12T14:41:34.292Z,23.16
2022-09-12T14:44:08.443Z,22.95
2022-09-12T14:46:40.709Z,23.17
2022-09-12T14:49:16.849Z,23.15
2022-09-12T14:51:57.289Z,23.15
2022-09-12T14:54:43.767Z,23.04
2022-09-12T14:57:33.895Z,22.93
2022-09-12T15:00:28.515Z,22.84
2022-09-12T15:02:58.675Z,22.77
2022-09-12T15:05:31.045Z,22.81
2022-09-12T15:08:04.585Z,22.75
2022-09-12T15:10:38.262Z,22.78
2022-09-12T15:13:17.572Z,22.80
2022-09-12T15:15:50.253Z,22.74
2022-09-12T15:18:21.461Z,22.85
2022-09-12T15:20:53.980Z,22.84
2022-09-12T15:23:33.926Z,22.86
2022-09-12T15:26:04.248Z,22.85
2022-09-12T15:28:35.308Z,22.80
2022-09-12T15:31:10.298Z,22.84
2022-09-12T15:33:40.577Z,22.72
2022-09-12T15:36:19.091Z,22.71
2022-09-12T15:38:52.493Z,22.71
2022-09-12T15:41:24.337Z,22.84
2022-09-12T15:43:54.502Z,22.78
2022-09-12T15:46:24.760Z,22.76
2022-09-12T15:48:54.994Z,22.70
2022-09-12T15:51:28.382Z,22.62
2022-09-12T15:54:01.341Z,22.55
2022-09-12T15:56:33.074Z,22.44
2022-09-12T15:59:03.315Z,22.38
2022-09-12T16:01:33.610Z,22.33
2022-09-12T16:04:05.791Z,22.32
2022-09-12T16:06:37.428Z,22.26
2022-09-12T16:09:14.792Z,22.24
2022-09-12T16:11:47.940Z,22.12
2022-09-12T16:14:19.187Z,22.03
2022-09-12T16:16:59.040Z,21.93
2022-09-12T16:19:29.337Z,21.79
2022-09-12T16:21:59.560Z,21.73
2022-09-12T16:24:32.656Z,21.69
2022-09-12T16:27:02.893Z,21.62
2022-09-12T16:29:33.204Z,21.54
2022-09-12T16:32:06.766Z,21.45
2022-09-12T16:34:37.100Z,21.44
2022-09-12T16:37:07.720Z,21.37
2022-09-12T16:39:40.501Z,21.28
2022-09-12T16:42:10.867Z,21.21
2022-09-12T16:44:41.434Z,21.12
2022-09-12T16:47:12.116Z,21.06
2022-09-12T16:49:42.290Z,21.00
2022-09-12T16:52:14.372Z,20.91
2022-09-12T16:54:47.168Z,20.86
2022-09-12T16:57:17.408Z,20.86
2022-09-12T16:59:47.693Z,20.95
2022-09-12T17:02:18.478Z,20.95
2022-09-12T17:04:49.472Z,20.93
2022-09-12T17:07:20.079Z,20.91
2022-09-12T17:09:53.354Z,20.85
2022-09-12T17:12:24.174Z,20.75
2022-09-12T17:14:57.060Z,20.60
2022-09-12T17:17:27.413Z,20.63
2022-09-12T17:19:57.586Z,20.67
2022-09-12T17:22:27.960Z,20.66
2022-09-12T17:25:00.863Z,20.60
2022-09-12T17:27:31.077Z,20.40
2022-09-12T17:30:01.294Z,20.24
2022-09-12T17:32:31.863Z,20.12
2022-09-12T17:35:02.227Z,19.84
2022-09-12T17:37:33.518Z,19.96
2022-09-12T17:40:06.742Z,19.87
2022-09-12T17:42:37.104Z,19.70
2022-09-12T17:45:08.389Z,19.62
2022-09-12T17:47:38.635Z,19.56
2022-09-12T17:50:30.952Z,19.52
2022-09-12T17:53:00.652Z,19.43
2022-09-12T17:55:34.268Z,19.27
2022-09-12T17:58:04.696Z,19.29
2022-09-12T18:00:47.323Z,19.13
2022-09-12T18:03:18.427Z,19.14
2022-09-12T18:05:49.769Z,18.96
2022-09-12T18:08:20.479Z,18.89
2022-09-12T18:10:54.263Z,18.78
2022-09-12T18:13:24.478Z,18.76
2022-09-12T18:15:54.823Z,18.55
2022-09-12T18:18:25.013Z,18.77
2022-09-12T18:20:55.189Z,18.75
2022-09-12T18:23:25.428Z,18.69
2022-09-12T18:26:03.935Z,18.57
2022-09-12T18:28:35.560Z,18.50
2022-09-12T18:31:05.862Z,18.47
2022-09-12T18:33:38.085Z,18.40
2022-09-12T18:36:09.308Z,18.40
2022-09-12T18:38:40.166Z,18.28
2022-09-12T18:41:15.000Z,18.29
2022-09-12T18:43:45.306Z,18.23
2022-09-12T18:46:20.265Z,18.21
2022-09-12T18:48:50.653Z,18.21
2022-09-12T18:51:22.796Z,18.10
2022-09-12T18:53:55.032Z,17.99
2022-09-12T18:56:32.980Z,17.84
2022-09-12T18:59:05.652Z,17.83
2022-09-12T19:01:38.291Z,17.75
2022-09-12T19:04:10.136Z,17.79
2022-09-12T19:06:42.614Z,17.63
2022-09-12T19:09:14.115Z,17.44
2022-09-12T19:11:52.755Z,17.33
2022-09-12T19:14:27.005Z,17.42
2022-09-12T19:16:57.323Z,17.38
2022-09-12T19:19:27.723Z,17.37
2022-09-12T19:21:58.326Z,17.29
2022-09-12T19:24:29.064Z,17.29
2022-09-12T19:27:01.872Z,17.19
2022-09-12T19:29:32.304Z,17.19
2022-09-12T19:32:05.971Z,17.12
2022-09-12T19:34:36.200Z,17.04
2022-09-12T19:37:06.447Z,17.02
2022-09-12T19:39:36.697Z,16.97
2022-09-12T19:42:09.857Z,16.90
2022-09-12T19:44:40.049Z,16.79
2022-09-12T19:47:10.954Z,16.73
2022-09-12T19:49:42.476Z,16.63
2022-09-12T19:52:17.228Z,16.55
2022-09-12T19:54:48.280Z,16.47
2022-09-12T19:57:21.050Z,16.38
2022-09-12T19:59:51.418Z,16.28
2022-09-12T20:02:21.677Z,16.28
2022-09-12T20:04:51.915Z,16.24
2022-09-12T20:07:22.187Z,16.22
2022-09-12T20:09:52.744Z,16.16
2022-09-12T20:12:25.489Z,16.11
2022-09-12T20:14:55.712Z,16.08
2022-09-12T20:17:25.895Z,16.03
2022-09-12T20:19:56.448Z,15.95
2022-09-12T20:22:26.770Z,15.82
2022-09-12T20:24:57.043Z,15.78
2022-09-12T20:27:29.936Z,15.68
2022-09-12T20:30:00.523Z,15.59
2022-09-12T20:32:31.670Z,15.58
2022-09-12T20:35:01.805Z,15.48
2022-09-12T20:37:32.802Z,15.38
2022-09-12T20:40:03.071Z,15.31
2022-09-12T20:42:36.078Z,15.23
2022-09-12T20:45:07.030Z,15.14
2022-09-12T20:47:37.114Z,15.09
2022-09-12T20:50:08.342Z,15.04
2022-09-12T20:52:38.447Z,14.97
2022-09-12T20:55:09.594Z,14.89
2022-09-12T20:57:42.443Z,14.83
2022-09-12T21:00:14.916Z,14.77
2022-09-12T21:02:45.054Z,14.73
2022-09-12T21:05:15.268Z,14.69
2022-09-12T21:07:45.444Z,14.71
2022-09-12T21:10:15.630Z,14.67
2022-09-12T21:12:48.370Z,14.57
2022-09-12T21:15:18.816Z,14.63
2022-09-12T21:17:49.272Z,14.59
2022-09-12T21:20:19.669Z,14.55
2022-09-12T21:22:49.789Z,14.49
2022-09-12T21:25:19.983Z,14.44
2022-09-12T21:27:52.865Z,14.41
2022-09-12T21:30:23.190Z,14.33
2022-09-12T21:32:53.293Z,14.29
2022-09-12T21:35:23.554Z,14.24
2022-09-12T21:37:54.614Z,14.20
2022-09-12T21:40:25.163Z,14.17
2022-09-12T21:42:58.219Z,14.09
2022-09-12T21:45:28.477Z,14.04
2022-09-12T21:47:58.954Z,13.98
2022-09-12T21:50:29.714Z,13.95
2022-09-12T21:53:00.054Z,13.91
2022-09-12T21:55:30.244Z,13.85
2022-09-12T21:58:02.947Z,13.79
2022-09-12T22:00:33.104Z,13.74
2022-09-12T22:03:03.578Z,13.72
2022-09-12T22:05:34.574Z,13.69
2022-09-12T22:08:05.210Z,13.65
2022-09-12T22:10:35.600Z,13.62
2022-09-12T22:13:08.338Z,13.56
2022-09-12T22:15:41.055Z,13.53
2022-09-12T22:18:11.741Z,13.52
2022-09-12T22:20:41.914Z,13.51
2022-09-12T22:23:26.798Z,13.50
2022-09-12T22:25:58.662Z,13.12
2022-09-12T22:28:32.362Z,13.06
2022-09-12T22:31:02.491Z,13.12
2022-09-12T22:33:32.664Z,13.27
2022-09-12T22:36:02.835Z,13.26
2022-09-12T22:38:33.437Z,13.20
2022-09-12T22:41:06.550Z,13.17
2022-09-12T22:43:39.844Z,13.11
2022-09-12T22:46:12.350Z,13.05
2022-09-12T22:48:43.330Z,13.02
2022-09-12T22:51:14.204Z,12.94
2022-09-12T22:53:45.073Z,12.92
2022-09-12T22:56:15.433Z,12.87
2022-09-12T22:58:48.251Z,12.84
2022-09-12T23:01:18.684Z,12.82
2022-09-12T23:03:49.104Z,12.79
2022-09-12T23:06:20.002Z,12.78
2022-09-12T23:08:50.157Z,12.75
2022-09-12T23:11:22.345Z,12.75
2022-09-12T23:13:55.095Z,12.73
2022-09-12T23:16:28.525Z,12.71
2022-09-12T23:18:58.689Z,12.69
2022-09-12T23:21:30.126Z,12.67
2022-09-12T23:24:03.186Z,12.62
2022-09-12T23:26:33.528Z,12.59
2022-09-12T23:29:08.442Z,12.57
2022-09-12T23:31:39.027Z,12.54
2022-09-12T23:34:09.364Z,12.53
2022-09-12T23:36:39.663Z,12.51
2022-09-12T23:39:09.994Z,12.18
2022-09-12T23:41:40.650Z,12.11
2022-09-12T23:44:13.464Z,12.07
2022-09-12T23:46:48.728Z,12.02
2022-09-12T23:49:18.954Z,11.99
2022-09-12T23:51:49.153Z,11.98
2022-09-12T23:54:19.559Z,11.95
2022-09-12T23:56:49.770Z,12.10
2022-09-12T23:59:22.540Z,12.26
